Time;durP1;ratioP1;P1;durP2;ratioP2;P2;SDS_P1;SDS_P2;PMS_P1;PMS_P2;Temp;Humidity;BMP_temperature;BMP_pressure;BME280_temperature;BME280_humidity;BME280_pressure;Samples;Min_cycle;Max_cycle;Signal;HPM_P1;HPM_P2
2021/12/08 00:01:25;;;;;;;5.78;5.28;;;22.00;73.40;;;;;;6210167;28;88622;-64
2021/12/08 00:04:27;;;;;;;5.68;5.18;;;22.00;73.50;;;;;;6205638;28;88050;-64
2021/12/08 00:07:29;;;;;;;5.47;5.00;;;22.00;73.50;;;;;;6200769;28;88097;-64
2021/12/08 00:13:00;;;;;;;5.40;4.90;;;22.00;73.50;;;;;;6201663;28;89445;-64
2021/12/08 00:14:13;;;;;;;5.50;5.03;;;22.00;73.50;;;;;;6196773;28;88621;-64
2021/12/08 00:17:15;;;;;;;5.10;4.70;;;22.00;73.50;;;;;;6186714;28;89039;-64
2021/12/08 00:20:18;;;;;;;5.00;4.60;;;21.90;73.50;;;;;;6205207;28;87258;-65
2021/12/08 00:23:21;;;;;;;5.13;4.63;;;21.90;73.50;;;;;;6218174;28;89181;-64
2021/12/08 00:26:23;;;;;;;5.07;4.60;;;21.90;73.50;;;;;;6227533;28;89072;-64
2021/12/08 00:29:27;;;;;;;5.10;4.60;;;21.90;73.50;;;;;;6209231;28;90025;-64
2021/12/08 00:32:33;;;;;;;5.03;4.57;;;21.90;73.60;;;;;;6206792;28;89091;-64
2021/12/08 00:35:36;;;;;;;5.10;4.60;;;21.80;73.50;;;;;;6212934;28;88521;-64
2021/12/08 00:38:38;;;;;;;5.40;4.90;;;21.90;73.50;;;;;;6204492;28;89060;-64
2021/12/08 00:41:41;;;;;;;5.07;4.60;;;21.80;73.60;;;;;;6197050;28;89135;-64
2021/12/08 00:44:45;;;;;;;4.85;4.45;;;21.80;73.50;;;;;;6216043;28;89043;-64
2021/12/08 00:47:47;;;;;;;4.45;4.05;;;21.80;73.60;;;;;;6205685;28;88101;-64
2021/12/08 00:50:51;;;;;;;4.85;4.45;;;21.80;73.60;;;;;;6211946;28;88261;-64
2021/12/08 00:53:53;;;;;;;4.60;4.20;;;21.80;73.70;;;;;;6203840;28;88904;-65
2021/12/08 00:56:57;;;;;;;4.60;4.20;;;21.80;73.60;;;;;;6190719;28;89389;-64
2021/12/08 01:00:03;;;;;;;4.43;4.03;;;21.80;73.60;;;;;;6207686;28;90082;-64
2021/12/08 01:03:06;;;;;;;4.50;4.10;;;21.80;73.60;;;;;;6215039;28;89000;-64
2021/12/08 01:06:08;;;;;;;4.45;4.05;;;21.70;73.60;;;;;;6209336;28;89135;-64
2021/12/08 01:09:11;;;;;;;4.75;4.35;;;21.70;73.60;;;;;;6208113;28;89059;-64
2021/12/08 01:12:13;;;;;;;4.88;4.38;;;21.70;73.60;;;;;;6212562;28;88855;-64
2021/12/08 01:15:17;;;;;;;4.68;4.03;;;21.70;73.70;;;;;;6207126;28;89308;-64
2021/12/08 01:18:20;;;;;;;4.63;4.22;;;21.70;73.70;;;;;;6205220;28;89117;-64
2021/12/08 01:21:22;;;;;;;4.38;3.97;;;21.70;73.70;;;;;;6220055;28;88408;-64
2021/12/08 01:24:24;;;;;;;4.40;4.00;;;21.70;73.70;;;;;;6220905;28;87943;-64
2021/12/08 01:27:26;;;;;;;4.75;4.32;;;21.70;73.70;;;;;;6213471;28;89051;-64
2021/12/08 01:30:29;;;;;;;4.53;4.13;;;21.70;73.70;;;;;;6203356;28;90036;-64
2021/12/08 01:33:34;;;;;;;5.00;4.50;;;21.60;73.70;;;;;;6208046;28;89033;-64
2021/12/08 01:36:36;;;;;;;4.78;4.38;;;21.70;73.70;;;;;;6208839;28;89021;-64
2021/12/08 01:39:38;;;;;;;5.25;4.75;;;21.60;73.60;;;;;;6198923;28;89418;-64
2021/12/08 01:42:45;;;;;;;5.20;4.70;;;21.60;73.70;;;;;;6206179;28;88004;-64
2021/12/08 01:46:00;;;;;;;5.00;4.50;;;21.60;73.60;;;;;;6204324;28;89433;-64
2021/12/08 01:49:04;;;;;;;5.32;4.82;;;21.60;73.60;;;;;;6220694;28;88929;-64
2021/12/08 01:52:07;;;;;;;5.50;5.00;;;21.60;73.60;;;;;;6206054;28;87252;-64
2021/12/08 01:55:10;;;;;;;5.70;5.15;;;21.60;73.70;;;;;;6208315;28;89349;-64
2021/12/08 01:58:15;;;;;;;5.65;5.10;;;21.60;73.70;;;;;;6196937;28;89083;-64
2021/12/08 02:01:21;;;;;;;6.32;5.68;;;21.60;73.70;;;;;;6203814;28;90397;-64
2021/12/08 02:04:23;;;;;;;6.40;5.80;;;21.50;73.60;;;;;;6214155;28;89467;-64
2021/12/08 02:07:25;;;;;;;6.85;6.18;;;21.50;73.70;;;;;;6215602;28;89198;-64
2021/12/08 02:10:28;;;;;;;6.35;5.75;;;21.50;73.60;;;;;;6215880;28;87444;-64
2021/12/08 02:13:36;;;;;;;6.95;6.28;;;21.50;73.70;;;;;;6209985;28;89058;-64
2021/12/08 02:16:39;;;;;;;6.63;6.03;;;21.50;73.70;;;;;;6206495;28;88857;-65
2021/12/08 02:23:02;;;;;;;7.07;6.38;;;21.50;73.70;;;;;;6207909;28;86584;-64
2021/12/08 02:26:04;;;;;;;7.75;7.05;;;21.50;73.70;;;;;;6213505;28;89213;-64
2021/12/08 02:29:11;;;;;;;7.60;6.80;;;21.40;73.70;;;;;;6211576;28;89238;-64
2021/12/08 02:32:30;;;;;;;7.63;6.93;;;21.40;73.60;;;;;;6208792;28;90219;-64
2021/12/08 02:48:53;;;;;;;8.40;7.60;;;21.40;73.70;;;;;;6213699;28;87227;-64
2021/12/08 02:51:55;;;;;;;7.85;7.15;;;21.40;73.60;;;;;;6204768;28;89072;-64
2021/12/08 02:55:04;;;;;;;8.60;7.80;;;21.40;73.70;;;;;;6224799;28;87203;-64
2021/12/08 02:58:07;;;;;;;7.82;7.13;;;21.40;73.60;;;;;;6214562;28;87981;-64
2021/12/08 03:01:12;;;;;;;8.55;7.72;;;21.40;73.70;;;;;;6203233;28;89137;-64
2021/12/08 03:04:14;;;;;;;8.15;7.30;;;21.40;73.70;;;;;;6202649;28;89964;-64
2021/12/08 03:07:17;;;;;;;8.45;7.65;;;21.40;73.70;;;;;;6200591;28;89342;-64
2021/12/08 03:10:24;;;;;;;7.95;7.15;;;21.40;73.70;;;;;;6206585;28;89102;-64
2021/12/08 03:13:31;;;;;;;8.30;7.45;;;21.40;73.70;;;;;;6201139;28;89028;-65
2021/12/08 03:16:34;;;;;;;8.55;7.75;;;21.40;73.70;;;;;;6197127;28;90886;-64
2021/12/08 03:19:37;;;;;;;8.32;7.53;;;21.30;73.50;;;;;;6205196;28;89144;-64
2021/12/08 03:22:43;;;;;;;8.00;7.20;;;21.40;73.70;;;;;;6198396;28;89040;-63
2021/12/08 03:25:55;;;;;;;8.70;7.80;;;21.40;73.70;;;;;;6190398;28;88670;-64
2021/12/08 03:29:03;;;;;;;8.50;7.65;;;21.30;73.60;;;;;;6216980;28;89232;-64
2021/12/08 03:32:12;;;;;;;8.43;7.63;;;21.30;73.60;;;;;;6207505;28;89134;-64
2021/12/08 03:35:17;;;;;;;8.57;7.68;;;21.30;73.60;;;;;;6208462;28;90125;-64
2021/12/08 03:38:20;;;;;;;8.43;7.63;;;21.30;73.60;;;;;;6204893;28;89419;-64
2021/12/08 03:41:24;;;;;;;8.35;7.55;;;21.20;73.60;;;;;;6217209;28;89085;-64
2021/12/08 03:44:26;;;;;;;8.55;7.75;;;21.30;73.60;;;;;;6213990;28;89075;-63
2021/12/08 03:47:29;;;;;;;8.20;7.40;;;21.30;73.60;;;;;;6224319;28;89110;-64
2021/12/08 03:50:36;;;;;;;8.60;7.72;;;21.30;73.60;;;;;;6208007;28;89241;-64
2021/12/08 03:53:38;;;;;;;8.20;7.40;;;21.20;73.60;;;;;;6216277;28;87882;-65
2021/12/08 03:56:43;;;;;;;7.88;7.13;;;21.20;73.60;;;;;;6205600;28;88695;-64
2021/12/08 03:59:45;;;;;;;7.72;7.03;;;21.20;73.60;;;;;;6203889;28;89023;-65
2021/12/08 04:02:48;;;;;;;7.72;6.97;;;21.20;73.60;;;;;;6215073;28;89378;-64
2021/12/08 04:05:54;;;;;;;7.90;7.10;;;21.20;73.50;;;;;;6205417;28;90011;-65
2021/12/08 04:08:57;;;;;;;7.65;6.85;;;21.20;73.50;;;;;;6221599;28;87975;-64
2021/12/08 04:12:01;;;;;;;7.60;6.90;;;21.20;73.50;;;;;;6233068;28;90533;-64
2021/12/08 04:15:08;;;;;;;7.82;7.03;;;21.20;73.50;;;;;;6205922;28;89088;-64
2021/12/08 04:18:10;;;;;;;7.85;7.07;;;21.20;73.50;;;;;;6210040;28;89344;-64
2021/12/08 04:21:15;;;;;;;7.47;6.78;;;21.20;73.60;;;;;;6210487;28;89023;-64
2021/12/08 04:24:17;;;;;;;7.43;6.72;;;21.30;73.60;;;;;;6216206;28;89414;-64
2021/12/08 04:27:24;;;;;;;7.82;7.03;;;21.30;73.60;;;;;;6221047;28;88649;-64
2021/12/08 04:30:31;;;;;;;7.22;6.55;;;21.30;73.50;;;;;;6205047;28;89025;-64
2021/12/08 04:33:35;;;;;;;7.90;7.10;;;21.30;73.40;;;;;;6212937;28;88169;-64
2021/12/08 04:36:44;;;;;;;7.78;6.97;;;21.30;73.30;;;;;;6212116;28;90859;-64
2021/12/08 04:39:58;;;;;;;7.18;6.47;;;21.30;73.20;;;;;;6204531;28;89222;-64
2021/12/08 04:43:16;;;;;;;7.20;6.50;;;21.30;73.10;;;;;;6206605;28;89452;-64
2021/12/08 04:46:34;;;;;;;6.97;6.35;;;21.30;73.10;;;;;;6206919;28;89058;-64
2021/12/08 04:50:11;;;;;;;7.30;6.60;;;21.40;73.10;;;;;;6217611;28;89984;-64
2021/12/08 04:53:31;;;;;;;6.78;6.07;;;21.40;73.00;;;;;;6206665;28;88569;-64
2021/12/08 05:03:40;;;;;;;7.25;6.55;;;21.40;72.90;;;;;;6214599;28;87036;-64
2021/12/08 05:06:50;;;;;;;6.70;6.00;;;21.40;72.80;;;;;;6207820;28;89365;-64
2021/12/08 05:09:52;;;;;;;7.05;6.38;;;21.50;72.80;;;;;;6197598;28;90073;-64
2021/12/08 05:12:56;;;;;;;6.47;5.88;;;21.50;72.80;;;;;;6206138;28;89098;-64
2021/12/08 05:15:59;;;;;;;6.32;5.75;;;21.50;72.80;;;;;;6213868;28;89163;-65
2021/12/08 05:19:15;;;;;;;6.63;6.03;;;21.50;72.70;;;;;;6202712;28;90354;-64
2021/12/08 05:22:19;;;;;;;6.43;5.82;;;21.60;72.70;;;;;;6202057;28;89055;-64
2021/12/08 05:25:26;;;;;;;6.13;5.53;;;21.60;72.70;;;;;;6215571;28;88317;-65
2021/12/08 05:28:29;;;;;;;6.57;5.93;;;21.60;72.70;;;;;;6204389;28;89189;-64
2021/12/08 05:31:34;;;;;;;6.05;5.45;;;21.60;72.70;;;;;;6205244;28;87223;-64
2021/12/08 05:34:39;;;;;;;5.70;5.20;;;21.60;72.70;;;;;;6198816;28;89456;-64
2021/12/08 05:37:41;;;;;;;6.07;5.47;;;21.60;72.70;;;;;;6213400;28;89136;-64
2021/12/08 05:40:48;;;;;;;6.10;5.53;;;21.50;72.70;;;;;;6208876;28;90036;-63
2021/12/08 05:43:51;;;;;;;6.25;5.65;;;21.60;72.80;;;;;;6199094;28;89105;-63
2021/12/08 05:46:57;;;;;;;6.00;5.40;;;21.50;72.70;;;;;;6202429;28;89134;-62
2021/12/08 05:50:00;;;;;;;5.78;5.28;;;21.50;72.80;;;;;;6200741;28;89029;-63
2021/12/08 05:53:02;;;;;;;6.10;5.50;;;21.50;72.80;;;;;;6205175;28;89084;-63
2021/12/08 05:56:06;;;;;;;5.88;5.38;;;21.50;72.80;;;;;;6207538;28;89075;-63
2021/12/08 05:59:10;;;;;;;5.55;5.05;;;21.50;72.80;;;;;;6201441;28;89161;-62
2021/12/08 06:02:18;;;;;;;6.13;5.35;;;21.50;72.70;;;;;;6193587;28;87533;-63
2021/12/08 06:05:21;;;;;;;5.75;5.25;;;21.60;72.70;;;;;;6203391;28;88095;-62
2021/12/08 06:08:27;;;;;;;5.70;5.20;;;21.60;72.70;;;;;;6186955;28;89007;-62
2021/12/08 06:11:32;;;;;;;5.40;4.90;;;21.60;72.70;;;;;;6207418;28;90031;-63
2021/12/08 06:14:35;;;;;;;5.60;5.10;;;21.50;72.60;;;;;;6202604;28;89073;-63
2021/12/08 06:17:40;;;;;;;5.22;4.72;;;21.60;72.70;;;;;;6206631;28;89068;-63
2021/12/08 06:20:43;;;;;;;5.32;4.82;;;21.60;72.70;;;;;;6196987;28;89079;-62
2021/12/08 06:23:46;;;;;;;5.38;4.88;;;21.60;73.50;;;;;;6209828;28;89084;-63
2021/12/08 06:26:49;;;;;;;4.88;4.38;;;21.60;72.50;;;;;;6199531;28;89080;-63
2021/12/08 06:29:51;;;;;;;5.20;4.70;;;21.60;72.60;;;;;;6203045;28;89119;-63
2021/12/08 06:32:55;;;;;;;4.70;4.30;;;21.70;73.30;;;;;;6211039;28;88702;-63
2021/12/08 06:36:01;;;;;;;4.50;4.10;;;21.70;72.40;;;;;;6207288;28;89104;-63
2021/12/08 06:39:06;;;;;;;4.80;4.30;;;21.70;72.30;;;;;;6195302;28;89082;-63
2021/12/08 06:42:12;;;;;;;4.88;4.38;;;21.70;72.30;;;;;;6186891;28;90078;-63
2021/12/08 06:45:17;;;;;;;4.88;4.47;;;21.70;72.20;;;;;;6199378;28;89012;-63
2021/12/08 06:48:24;;;;;;;4.80;4.30;;;21.80;72.30;;;;;;6191024;28;89072;-63
2021/12/08 06:51:29;;;;;;;4.95;4.45;;;21.80;72.20;;;;;;6186885;28;89622;-62
2021/12/08 06:54:35;;;;;;;4.82;4.32;;;21.80;72.10;;;;;;6196644;28;88995;-63
2021/12/08 06:57:40;;;;;;;4.80;4.40;;;21.80;72.00;;;;;;6185330;28;89081;-63
2021/12/08 07:00:50;;;;;;;4.68;4.22;;;21.90;72.00;;;;;;6195992;28;89248;-63
2021/12/08 07:04:09;;;;;;;4.40;4.00;;;21.90;72.00;;;;;;6215984;28;88638;-63
2021/12/08 07:07:15;;;;;;;4.40;4.00;;;21.90;71.90;;;;;;6191281;28;88069;-64
2021/12/08 07:10:21;;;;;;;4.32;3.92;;;22.00;71.80;;;;;;6207612;28;89084;-64
2021/12/08 07:13:26;;;;;;;4.63;4.22;;;21.90;71.80;;;;;;6197548;28;90012;-64
2021/12/08 07:16:31;;;;;;;4.20;3.80;;;21.90;71.70;;;;;;6194620;28;89034;-63
2021/12/08 07:19:43;;;;;;;4.20;3.80;;;22.00;71.60;;;;;;6213726;28;88128;-63
2021/12/08 07:22:49;;;;;;;4.28;3.88;;;22.00;71.60;;;;;;6197612;28;89077;-63
2021/12/08 07:25:54;;;;;;;4.28;3.88;;;22.00;71.60;;;;;;6215282;28;89131;-64
2021/12/08 07:28:58;;;;;;;4.10;3.70;;;22.00;71.60;;;;;;6213650;28;89055;-64
2021/12/08 07:32:04;;;;;;;4.57;4.18;;;22.00;71.60;;;;;;6214162;28;89085;-64
2021/12/08 07:35:11;;;;;;;3.80;3.40;;;22.00;71.60;;;;;;6219390;28;88340;-63
2021/12/08 07:38:17;;;;;;;4.10;3.70;;;22.00;71.60;;;;;;6196679;28;88006;-63
2021/12/08 07:41:22;;;;;;;3.85;3.55;;;22.00;71.60;;;;;;6209670;28;89084;-63
2021/12/08 07:44:24;;;;;;;3.72;3.42;;;22.00;71.60;;;;;;6200440;28;89790;-63
2021/12/08 07:47:29;;;;;;;3.72;3.42;;;22.10;71.60;;;;;;6217019;28;89434;-63
2021/12/08 07:50:39;;;;;;;3.85;3.55;;;22.10;71.60;;;;;;6211604;28;87956;-63
2021/12/08 07:53:41;;;;;;;3.80;3.47;;;22.10;71.50;;;;;;6214491;28;88148;-63
2021/12/08 07:56:47;;;;;;;3.83;3.40;;;22.10;71.50;;;;;;6206107;28;89033;-63
2021/12/08 07:59:51;;;;;;;3.70;3.40;;;22.10;71.50;;;;;;6203155;28;89403;-63
2021/12/08 08:02:55;;;;;;;4.18;3.80;;;22.10;71.50;;;;;;6213613;28;89538;-63
2021/12/08 08:05:59;;;;;;;3.47;3.15;;;22.10;71.50;;;;;;6201458;28;87222;-63
2021/12/08 08:09:02;;;;;;;3.67;3.38;;;22.10;71.50;;;;;;6205698;28;90539;-64
2021/12/08 08:12:06;;;;;;;3.53;3.22;;;22.10;71.50;;;;;;6198022;28;89299;-63
2021/12/08 08:15:11;;;;;;;3.88;3.58;;;22.10;71.50;;;;;;6206663;28;90671;-63
2021/12/08 08:18:18;;;;;;;3.60;3.30;;;22.20;71.50;;;;;;6205005;28;89118;-63
2021/12/08 08:21:24;;;;;;;3.47;3.17;;;22.10;71.40;;;;;;6205300;28;88108;-63
2021/12/08 08:24:27;;;;;;;3.40;3.10;;;22.20;71.40;;;;;;6201664;28;89099;-63
2021/12/08 08:27:29;;;;;;;3.65;3.35;;;22.20;71.40;;;;;;6217585;28;87907;-63
2021/12/08 08:30:38;;;;;;;3.30;3.00;;;22.20;71.30;;;;;;6211006;28;90894;-63
2021/12/08 08:33:42;;;;;;;3.40;3.10;;;22.10;71.30;;;;;;6201227;28;89051;-64
2021/12/08 08:36:47;;;;;;;3.55;3.25;;;22.20;71.30;;;;;;6197419;28;88372;-63
2021/12/08 08:39:54;;;;;;;3.40;3.10;;;22.20;71.30;;;;;;6212900;28;89417;-63
2021/12/08 08:42:58;;;;;;;3.50;3.20;;;22.20;71.30;;;;;;6206196;28;89067;-63
2021/12/08 08:46:04;;;;;;;3.38;3.08;;;22.20;71.30;;;;;;6200491;28;89925;-63
2021/12/08 08:49:10;;;;;;;3.50;3.20;;;22.20;71.20;;;;;;6216627;28;89318;-63
2021/12/08 08:52:18;;;;;;;3.35;3.05;;;22.30;71.30;;;;;;6209978;28;89002;-63
2021/12/08 08:55:25;;;;;;;3.50;3.20;;;22.30;71.30;;;;;;6199976;28;89876;-63
2021/12/08 08:58:30;;;;;;;3.42;3.13;;;22.30;71.20;;;;;;6222815;28;89448;-64
2021/12/08 09:01:35;;;;;;;3.35;3.05;;;22.30;71.20;;;;;;6222064;28;88990;-63
2021/12/08 09:04:43;;;;;;;3.00;2.80;;;22.20;71.10;;;;;;6202906;28;89173;-63
2021/12/08 09:07:50;;;;;;;3.10;2.90;;;22.30;71.20;;;;;;6216046;28;89186;-63
2021/12/08 09:10:57;;;;;;;3.05;2.75;;;22.30;71.10;;;;;;6205194;28;89086;-63
2021/12/08 09:14:05;;;;;;;3.25;2.95;;;22.30;71.10;;;;;;6205794;28;89059;-63
2021/12/08 09:17:10;;;;;;;3.03;2.72;;;22.30;71.10;;;;;;6197073;28;90024;-63
2021/12/08 09:20:20;;;;;;;3.08;2.80;;;22.30;71.20;;;;;;6213943;28;87939;-63
2021/12/08 09:23:30;;;;;;;3.63;2.83;;;22.30;71.20;;;;;;6204344;28;89462;-63
2021/12/08 09:26:37;;;;;;;3.25;2.95;;;22.30;71.10;;;;;;6213999;28;90374;-63
2021/12/08 09:29:44;;;;;;;2.97;2.72;;;22.30;72.10;;;;;;6198932;28;89098;-63
2021/12/08 09:32:49;;;;;;;3.30;3.00;;;22.30;71.20;;;;;;6208903;28;89145;-63
2021/12/08 09:35:53;;;;;;;3.30;3.00;;;22.30;71.10;;;;;;6194805;28;89234;-63
2021/12/08 09:39:00;;;;;;;3.42;3.13;;;22.30;71.10;;;;;;6207687;28;88352;-63
2021/12/08 09:42:07;;;;;;;3.25;3.00;;;22.30;71.10;;;;;;6197660;28;88354;-63
2021/12/08 09:45:15;;;;;;;3.53;3.22;;;22.30;71.10;;;;;;6198811;28;89346;-63
2021/12/08 09:48:17;;;;;;;3.97;3.65;;;22.40;71.10;;;;;;6207700;28;90139;-63
2021/12/08 09:51:22;;;;;;;3.72;3.42;;;22.30;71.10;;;;;;6210951;28;89089;-63
2021/12/08 09:54:26;;;;;;;4.15;3.80;;;22.40;71.10;;;;;;6212838;28;89432;-63
2021/12/08 09:57:28;;;;;;;3.60;3.30;;;22.30;71.00;;;;;;6193233;28;87913;-63
2021/12/08 10:00:34;;;;;;;4.10;3.80;;;22.40;71.10;;;;;;6200843;28;89443;-63
2021/12/08 10:03:36;;;;;;;4.20;3.80;;;22.40;71.10;;;;;;6207214;28;89045;-63
2021/12/08 10:06:40;;;;;;;4.22;3.83;;;22.40;72.00;;;;;;6212761;28;89052;-63
2021/12/08 10:09:44;;;;;;;4.60;4.20;;;22.40;71.00;;;;;;6202722;28;87258;-63
2021/12/08 10:12:47;;;;;;;4.50;4.10;;;22.40;71.00;;;;;;6206223;28;88995;-63
2021/12/08 10:15:49;;;;;;;4.80;4.40;;;22.40;71.00;;;;;;6205299;28;89099;-63
2021/12/08 10:18:52;;;;;;;5.07;4.68;;;22.40;71.00;;;;;;6203723;28;90329;-64
2021/12/08 10:21:54;;;;;;;4.60;4.20;;;22.40;71.00;;;;;;6211000;28;88265;-63
2021/12/08 10:25:07;;;;;;;4.78;4.38;;;22.40;71.00;;;;;;6208656;28;89101;-63
2021/12/08 10:28:12;;;;;;;4.80;4.40;;;22.40;71.00;;;;;;6206635;28;89377;-63
2021/12/08 10:31:18;;;;;;;5.10;4.70;;;22.40;70.90;;;;;;6211636;28;88949;-63
2021/12/08 10:34:29;;;;;;;5.40;4.90;;;22.40;70.90;;;;;;6211233;28;89105;-63
2021/12/08 10:37:31;;;;;;;5.45;5.00;;;22.50;71.00;;;;;;6211192;28;89061;-63
2021/12/08 10:40:35;;;;;;;5.70;5.20;;;22.50;71.00;;;;;;6200772;28;90488;-63
2021/12/08 10:43:37;;;;;;;5.53;5.03;;;22.40;70.90;;;;;;6205260;28;89117;-63
2021/12/08 10:46:39;;;;;;;6.13;5.63;;;22.40;70.90;;;;;;6202213;28;89094;-63
2021/12/08 10:56:36;;;;;;;6.00;5.50;;;22.50;71.00;;;;;;6209908;28;87072;-62
2021/12/08 11:00:01;;;;;;;5.75;5.25;;;22.40;70.90;;;;;;6221057;28;89348;-63
2021/12/08 11:03:07;;;;;;;5.53;5.03;;;22.40;70.90;;;;;;6205202;28;88931;-63
2021/12/08 11:06:12;;;;;;;5.78;5.28;;;22.40;70.80;;;;;;6210429;28;90363;-63
2021/12/08 11:09:16;;;;;;;6.00;5.50;;;22.50;70.80;;;;;;6207946;28;89513;-63
2021/12/08 11:12:21;;;;;;;6.00;5.50;;;22.50;70.80;;;;;;6200705;28;88253;-62
2021/12/08 11:15:25;;;;;;;6.20;5.70;;;22.50;70.80;;;;;;6217755;28;90962;-63
2021/12/08 11:18:30;;;;;;;6.13;5.63;;;22.50;70.80;;;;;;6206676;28;89152;-63
2021/12/08 11:21:36;;;;;;;6.25;5.75;;;22.50;70.80;;;;;;6199963;28;89897;-63
2021/12/08 11:24:46;;;;;;;5.93;5.43;;;22.50;70.80;;;;;;6199876;28;89281;-63
2021/12/08 11:27:49;;;;;;;6.68;6.07;;;22.50;70.80;;;;;;6205810;28;89146;-62
2021/12/08 11:30:53;;;;;;;5.88;5.38;;;22.50;70.80;;;;;;6219743;28;89248;-63
2021/12/08 11:34:00;;;;;;;6.47;5.88;;;22.50;70.80;;;;;;6226259;28;89146;-63
2021/12/08 11:37:04;;;;;;;6.30;5.70;;;22.50;70.70;;;;;;6212190;28;88934;-63
2021/12/08 11:40:16;;;;;;;6.65;6.05;;;22.50;70.80;;;;;;6224424;28;89135;-63
2021/12/08 11:43:30;;;;;;;6.32;5.82;;;22.50;70.80;;;;;;6204986;28;87294;-62
2021/12/08 11:46:39;;;;;;;6.80;6.20;;;22.50;70.70;;;;;;6206275;28;88908;-63
2021/12/08 11:49:43;;;;;;;6.80;6.20;;;22.50;70.70;;;;;;6192682;28;89423;-62
2021/12/08 11:52:45;;;;;;;5.88;5.38;;;22.60;70.70;;;;;;6185246;28;88577;-63
2021/12/08 11:55:48;;;;;;;6.28;5.75;;;22.60;70.70;;;;;;6201656;28;89347;-62
2021/12/08 11:58:56;;;;;;;6.70;6.10;;;22.50;70.60;;;;;;6192708;28;89101;-63
2021/12/08 12:01:58;;;;;;;6.10;5.50;;;22.50;70.60;;;;;;6190080;28;89071;-62
2021/12/08 12:05:03;;;;;;;6.45;5.85;;;22.60;70.70;;;;;;6204377;28;89090;-63
2021/12/08 12:08:07;;;;;;;6.43;5.90;;;22.60;70.70;;;;;;6212127;28;89091;-63
2021/12/08 12:11:09;;;;;;;6.10;5.60;;;22.60;70.60;;;;;;6211662;28;89173;-64
2021/12/08 12:14:13;;;;;;;6.35;5.82;;;22.60;70.70;;;;;;6211523;28;87265;-63
2021/12/08 12:17:15;;;;;;;6.65;6.05;;;22.60;70.60;;;;;;6216102;28;89056;-63
2021/12/08 12:20:21;;;;;;;6.30;5.70;;;22.60;70.60;;;;;;6212024;28;89248;-63
2021/12/08 12:23:47;;;;;;;6.60;6.00;;;22.60;70.60;;;;;;6204971;28;89362;-63
2021/12/08 12:27:01;;;;;;;6.22;5.72;;;22.60;70.70;;;;;;6202297;28;89013;-63
2021/12/08 12:30:17;;;;;;;6.45;5.85;;;22.60;70.60;;;;;;6216550;28;89065;-64
2021/12/08 12:33:22;;;;;;;6.60;6.00;;;22.60;70.60;;;;;;6207232;28;89099;-63
2021/12/08 12:36:28;;;;;;;6.82;6.22;;;22.60;70.60;;;;;;6202127;28;88986;-63
2021/12/08 12:39:31;;;;;;;6.35;5.75;;;22.50;70.50;;;;;;6215640;28;89149;-63
2021/12/08 12:42:45;;;;;;;6.60;6.00;;;22.60;70.60;;;;;;6215558;28;87927;-63
2021/12/08 12:46:03;;;;;;;6.35;5.85;;;22.60;70.60;;;;;;6196646;28;88572;-63
2021/12/08 12:49:23;;;;;;;6.40;5.82;;;22.60;70.60;;;;;;6211587;28;89251;-63
2021/12/08 12:52:35;;;;;;;6.10;5.60;;;22.60;70.60;;;;;;6196342;28;89103;-63
2021/12/08 12:55:46;;;;;;;6.30;5.70;;;22.60;70.60;;;;;;6201675;28;90276;-63
2021/12/08 12:58:50;;;;;;;6.15;5.65;;;22.60;70.50;;;;;;6205902;28;87835;-63
2021/12/08 13:02:13;;;;;;;6.25;5.68;;;22.60;70.50;;;;;;6206122;28;89012;-63
2021/12/08 13:05:18;;;;;;;6.65;6.05;;;22.60;70.50;;;;;;6195746;28;89081;-63
2021/12/08 13:08:30;;;;;;;5.90;5.40;;;22.60;70.50;;;;;;6209877;28;89178;-63
2021/12/08 13:11:59;;;;;;;6.00;5.50;;;22.60;70.50;;;;;;6198200;28;87978;-63
2021/12/08 13:15:13;;;;;;;6.05;5.55;;;22.60;70.50;;;;;;6220049;28;90392;-63
2021/12/08 13:18:17;;;;;;;6.55;5.95;;;22.60;70.50;;;;;;6188330;28;88178;-63
2021/12/08 13:21:38;;;;;;;6.18;5.68;;;22.60;70.50;;;;;;6193205;28;89446;-64
2021/12/08 13:24:42;;;;;;;6.15;5.65;;;22.70;70.50;;;;;;6209775;28;89113;-63
2021/12/08 13:27:50;;;;;;;6.47;5.88;;;22.60;70.50;;;;;;6230352;28;88883;-64
2021/12/08 13:30:59;;;;;;;6.00;5.50;;;22.70;70.60;;;;;;6198318;28;87967;-63
2021/12/08 13:34:04;;;;;;;6.13;5.63;;;22.60;70.50;;;;;;6206806;28;88225;-63
2021/12/08 13:37:20;;;;;;;5.93;5.43;;;22.60;70.60;;;;;;6207010;28;87935;-63
2021/12/08 13:40:39;;;;;;;6.38;5.80;;;22.70;70.60;;;;;;6224073;28;88232;-63
2021/12/08 13:43:44;;;;;;;6.05;5.55;;;22.70;70.50;;;;;;6227575;28;88881;-62
2021/12/08 13:46:48;;;;;;;6.95;6.35;;;22.70;70.50;;;;;;6215244;28;88994;-63
2021/12/08 13:49:53;;;;;;;6.25;5.75;;;22.70;70.50;;;;;;6232121;28;88345;-63
2021/12/08 13:53:06;;;;;;;6.20;5.70;;;22.70;70.50;;;;;;6196015;28;89548;-63
2021/12/08 13:56:08;;;;;;;6.70;6.10;;;22.70;70.60;;;;;;6209830;28;88974;-63
2021/12/08 13:59:10;;;;;;;6.60;5.97;;;22.70;70.60;;;;;;6211585;28;90261;-63
2021/12/08 14:02:20;;;;;;;6.85;6.25;;;22.70;70.60;;;;;;6201486;28;89114;-63
2021/12/08 14:05:26;;;;;;;6.15;5.65;;;22.70;70.70;;;;;;6199015;28;89120;-63
2021/12/08 14:08:33;;;;;;;6.97;6.35;;;22.70;70.80;;;;;;6208300;28;89319;-63
2021/12/08 14:11:35;;;;;;;6.05;5.53;;;22.70;70.80;;;;;;6218024;28;88350;-63
2021/12/08 14:14:37;;;;;;;6.53;5.82;;;22.70;70.80;;;;;;6222579;28;89296;-63
2021/12/08 14:17:39;;;;;;;6.70;6.05;;;22.70;70.90;;;;;;6209138;28;89807;-63
2021/12/08 14:20:45;;;;;;;6.20;5.55;;;22.70;71.00;;;;;;6194301;28;88379;-63
2021/12/08 14:23:49;;;;;;;5.75;5.25;;;22.70;71.00;;;;;;6210017;28;89241;-63
2021/12/08 14:26:51;;;;;;;6.35;5.80;;;22.70;71.00;;;;;;6200389;28;89137;-63
2021/12/08 14:29:53;;;;;;;6.15;5.55;;;22.70;71.00;;;;;;6209526;28;90030;-63
2021/12/08 14:33:03;;;;;;;6.05;5.55;;;22.70;71.00;;;;;;6204153;28;89094;-62
2021/12/08 14:36:09;;;;;;;6.30;5.70;;;22.80;71.10;;;;;;6195051;28;87979;-63
2021/12/08 14:39:18;;;;;;;6.50;5.90;;;22.70;71.00;;;;;;6178822;28;89094;-63
2021/12/08 14:42:27;;;;;;;5.95;5.45;;;22.80;71.10;;;;;;6198939;28;89490;-63
2021/12/08 14:45:31;;;;;;;6.40;5.80;;;22.80;71.10;;;;;;6199782;28;89128;-63
2021/12/08 14:48:33;;;;;;;6.53;5.80;;;22.80;71.00;;;;;;6200009;28;89365;-63
2021/12/08 14:51:37;;;;;;;6.30;5.70;;;22.80;71.00;;;;;;6209091;28;87440;-62
2021/12/08 14:54:41;;;;;;;6.03;5.53;;;22.80;70.90;;;;;;6217345;28;89105;-63
2021/12/08 14:57:45;;;;;;;6.57;5.50;;;22.80;71.00;;;;;;6204388;28;89143;-63
2021/12/08 15:00:48;;;;;;;6.32;5.72;;;22.80;70.90;;;;;;6209386;28;89873;-63
2021/12/08 15:03:51;;;;;;;6.18;5.68;;;22.80;70.90;;;;;;6213991;28;89564;-63
2021/12/08 15:06:56;;;;;;;5.65;5.15;;;22.80;70.80;;;;;;6198683;28;89022;-64
2021/12/08 15:10:01;;;;;;;6.15;5.55;;;22.90;70.90;;;;;;6202963;28;89333;-64
2021/12/08 15:13:13;;;;;;;6.22;5.63;;;22.80;70.80;;;;;;6190946;28;89319;-63
2021/12/08 15:16:18;;;;;;;6.18;5.60;;;22.80;70.80;;;;;;6206061;28;89260;-63
2021/12/08 15:19:22;;;;;;;6.07;5.47;;;22.80;70.80;;;;;;6194723;28;90415;-63
2021/12/08 15:22:30;;;;;;;6.47;5.88;;;22.90;70.80;;;;;;6190629;28;88479;-63
2021/12/08 15:25:32;;;;;;;6.15;5.32;;;22.90;70.80;;;;;;6197906;28;89239;-64
2021/12/08 15:28:35;;;;;;;5.72;5.22;;;22.90;71.00;;;;;;6197727;28;89459;-63
2021/12/08 15:31:39;;;;;;;5.97;5.43;;;22.90;71.00;;;;;;6200356;28;90426;-64
2021/12/08 15:34:44;;;;;;;6.43;5.82;;;22.90;71.00;;;;;;6204200;28;89405;-64
2021/12/08 15:37:55;;;;;;;5.55;5.05;;;22.90;71.00;;;;;;6191311;28;88710;-64
2021/12/08 15:40:58;;;;;;;6.20;5.60;;;22.90;71.10;;;;;;6192569;28;89312;-63
2021/12/08 15:44:09;;;;;;;7.43;5.72;;;22.90;71.20;;;;;;6193187;28;88958;-64
2021/12/08 15:47:11;;;;;;;8.88;5.65;;;22.90;71.30;;;;;;6184257;28;89157;-64
2021/12/08 15:50:21;;;;;;;8.02;6.90;;;22.90;71.50;;;;;;6197033;28;89036;-63
2021/12/08 15:53:27;;;;;;;7.07;6.35;;;23.00;75.10;;;;;;6201677;28;87211;-63
2021/12/08 15:56:34;;;;;;;6.68;6.05;;;23.30;72.50;;;;;;6199545;28;89555;-63
2021/12/08 15:59:42;;;;;;;6.70;6.05;;;23.60;71.10;;;;;;6203827;28;89131;-63
2021/12/08 16:02:44;;;;;;;6.97;6.10;;;23.90;70.30;;;;;;6205667;28;90257;-63
2021/12/08 16:05:47;;;;;;;7.03;6.22;;;23.90;69.70;;;;;;6204059;28;89066;-63
2021/12/08 16:08:53;;;;;;;6.70;6.00;;;24.00;69.40;;;;;;6209323;28;89019;-63
2021/12/08 16:12:05;;;;;;;7.05;6.07;;;24.00;69.40;;;;;;6215772;28;89343;-63
2021/12/08 16:15:08;;;;;;;7.07;6.25;;;23.90;69.30;;;;;;6214826;28;89041;-63
2021/12/08 16:18:12;;;;;;;6.32;5.72;;;23.90;69.40;;;;;;6213813;28;88005;-63
2021/12/08 16:21:21;;;;;;;8.00;6.15;;;23.80;70.30;;;;;;6224902;28;89501;-63
2021/12/08 16:24:25;;;;;;;7.60;6.57;;;23.80;69.40;;;;;;6222372;28;88324;-62
2021/12/08 16:27:28;;;;;;;6.55;5.95;;;23.70;69.40;;;;;;6220241;28;89123;-63
2021/12/08 16:30:30;;;;;;;6.40;5.55;;;23.70;69.60;;;;;;6214079;28;89091;-62
2021/12/08 16:33:32;;;;;;;6.25;5.65;;;23.70;69.60;;;;;;6215979;28;88886;-63
2021/12/08 16:36:34;;;;;;;8.60;6.18;;;23.60;69.70;;;;;;6219492;28;89135;-62
2021/12/08 16:39:44;;;;;;;6.60;5.97;;;23.60;69.80;;;;;;6218402;28;90569;-62